sensor_id;sensor_type;location;lat;lon;timestamp;P1;durP1;ratioP1;P2;durP2;ratioP2
77513;SDS011;66626;48.872;9.084;2023-12-22T00:00:59;2.08;;;0.75;;
77513;SDS011;66626;48.872;9.084;2023-12-22T00:03:24;5.32;;;1.27;;
77513;SDS011;66626;48.872;9.084;2023-12-22T00:05:49;2.80;;;0.73;;
77513;SDS011;66626;48.872;9.084;2023-12-22T00:08:15;2.58;;;1.00;;
77513;SDS011;66626;48.872;9.084;2023-12-22T00:10:40;5.45;;;1.10;;
77513;SDS011;66626;48.872;9.084;2023-12-22T00:13:06;2.22;;;0.85;;
77513;SDS011;66626;48.872;9.084;2023-12-22T00:15:31;2.05;;;0.93;;
77513;SDS011;66626;48.872;9.084;2023-12-22T00:17:56;3.53;;;0.88;;
77513;SDS011;66626;48.872;9.084;2023-12-22T00:20:21;3.13;;;0.73;;
77513;SDS011;66626;48.872;9.084;2023-12-22T00:22:47;7.47;;;1.77;;
77513;SDS011;66626;48.872;9.084;2023-12-22T00:25:12;4.00;;;1.33;;
77513;SDS011;66626;48.872;9.084;2023-12-22T00:27:37;11.20;;;1.50;;
77513;SDS011;66626;48.872;9.084;2023-12-22T00:30:03;3.80;;;0.95;;
77513;SDS011;66626;48.872;9.084;2023-12-22T00:32:29;5.75;;;1.20;;
77513;SDS011;66626;48.872;9.084;2023-12-22T00:34:54;5.97;;;1.02;;
77513;SDS011;66626;48.872;9.084;2023-12-22T00:37:19;3.83;;;1.15;;
77513;SDS011;66626;48.872;9.084;2023-12-22T00:39:45;5.75;;;1.33;;
77513;SDS011;66626;48.872;9.084;2023-12-22T00:42:10;2.20;;;0.77;;
77513;SDS011;66626;48.872;9.084;2023-12-22T00:44:35;4.55;;;1.77;;
77513;SDS011;66626;48.872;9.084;2023-12-22T00:47:01;3.83;;;1.20;;
77513;SDS011;66626;48.872;9.084;2023-12-22T00:49:26;3.72;;;1.48;;
77513;SDS011;66626;48.872;9.084;2023-12-22T00:51:51;5.85;;;1.50;;
77513;SDS011;66626;48.872;9.084;2023-12-22T00:54:16;3.08;;;0.88;;
77513;SDS011;66626;48.872;9.084;2023-12-22T00:56:42;3.17;;;1.20;;
77513;SDS011;66626;48.872;9.084;2023-12-22T00:59:07;4.95;;;1.30;;
77513;SDS011;66626;48.872;9.084;2023-12-22T01:01:32;3.10;;;1.23;;
77513;SDS011;66626;48.872;9.084;2023-12-22T01:03:58;3.55;;;1.30;;
77513;SDS011;66626;48.872;9.084;2023-12-22T01:06:23;4.75;;;1.45;;
77513;SDS011;66626;48.872;9.084;2023-12-22T01:08:48;3.75;;;0.98;;
77513;SDS011;66626;48.872;9.084;2023-12-22T01:11:15;8.55;;;1.15;;
77513;SDS011;66626;48.872;9.084;2023-12-22T01:13:41;7.78;;;1.83;;
77513;SDS011;66626;48.872;9.084;2023-12-22T01:16:07;4.28;;;1.23;;
77513;SDS011;66626;48.872;9.084;2023-12-22T01:18:32;3.03;;;1.30;;
77513;SDS011;66626;48.872;9.084;2023-12-22T01:20:58;4.63;;;1.70;;
77513;SDS011;66626;48.872;9.084;2023-12-22T01:23:24;7.35;;;1.73;;
77513;SDS011;66626;48.872;9.084;2023-12-22T01:25:50;7.53;;;1.30;;
77513;SDS011;66626;48.872;9.084;2023-12-22T01:28:15;3.55;;;1.15;;
77513;SDS011;66626;48.872;9.084;2023-12-22T01:30:41;4.50;;;1.10;;
77513;SDS011;66626;48.872;9.084;2023-12-22T01:33:06;3.05;;;1.10;;
77513;SDS011;66626;48.872;9.084;2023-12-22T01:35:32;5.07;;;1.13;;
77513;SDS011;66626;48.872;9.084;2023-12-22T01:37:57;2.03;;;0.73;;
77513;SDS011;66626;48.872;9.084;2023-12-22T01:40:22;3.60;;;1.15;;
77513;SDS011;66626;48.872;9.084;2023-12-22T01:42:47;8.88;;;1.13;;
77513;SDS011;66626;48.872;9.084;2023-12-22T01:45:13;6.55;;;1.35;;
77513;SDS011;66626;48.872;9.084;2023-12-22T01:47:38;5.13;;;0.73;;
77513;SDS011;66626;48.872;9.084;2023-12-22T01:50:04;3.17;;;0.88;;
77513;SDS011;66626;48.872;9.084;2023-12-22T01:52:30;4.15;;;1.00;;
77513;SDS011;66626;48.872;9.084;2023-12-22T01:54:56;3.53;;;0.57;;
77513;SDS011;66626;48.872;9.084;2023-12-22T01:57:21;2.83;;;0.82;;
77513;SDS011;66626;48.872;9.084;2023-12-22T01:59:46;2.58;;;0.77;;
77513;SDS011;66626;48.872;9.084;2023-12-22T02:02:13;1.00;;;0.47;;
77513;SDS011;66626;48.872;9.084;2023-12-22T02:04:38;3.53;;;0.55;;
77513;SDS011;66626;48.872;9.084;2023-12-22T02:07:04;4.30;;;0.98;;
77513;SDS011;66626;48.872;9.084;2023-12-22T02:09:33;3.15;;;0.60;;
77513;SDS011;66626;48.872;9.084;2023-12-22T02:12:00;2.08;;;0.50;;
77513;SDS011;66626;48.872;9.084;2023-12-22T02:14:25;1.35;;;0.55;;
77513;SDS011;66626;48.872;9.084;2023-12-22T02:16:52;1.92;;;0.32;;
77513;SDS011;66626;48.872;9.084;2023-12-22T02:19:24;2.70;;;0.80;;
77513;SDS011;66626;48.872;9.084;2023-12-22T02:22:07;1.80;;;0.70;;
77513;SDS011;66626;48.872;9.084;2023-12-22T02:24:33;1.38;;;0.47;;
77513;SDS011;66626;48.872;9.084;2023-12-22T02:29:46;5.43;;;0.70;;
77513;SDS011;66626;48.872;9.084;2023-12-22T02:32:17;2.60;;;0.70;;
77513;SDS011;66626;48.872;9.084;2023-12-22T02:34:49;3.80;;;1.15;;
77513;SDS011;66626;48.872;9.084;2023-12-22T02:37:16;1.90;;;0.60;;
77513;SDS011;66626;48.872;9.084;2023-12-22T02:39:43;9.30;;;4.32;;
77513;SDS011;66626;48.872;9.084;2023-12-22T02:42:08;2.28;;;0.60;;
77513;SDS011;66626;48.872;9.084;2023-12-22T02:44:34;2.72;;;0.73;;
77513;SDS011;66626;48.872;9.084;2023-12-22T02:46:59;2.78;;;0.73;;
77513;SDS011;66626;48.872;9.084;2023-12-22T02:49:25;2.13;;;1.15;;
77513;SDS011;66626;48.872;9.084;2023-12-22T02:51:50;1.05;;;0.40;;
77513;SDS011;66626;48.872;9.084;2023-12-22T02:54:16;2.72;;;0.77;;
77513;SDS011;66626;48.872;9.084;2023-12-22T02:56:42;5.85;;;1.17;;
77513;SDS011;66626;48.872;9.084;2023-12-22T02:59:08;5.47;;;0.80;;
77513;SDS011;66626;48.872;9.084;2023-12-22T03:01:34;4.63;;;1.45;;
77513;SDS011;66626;48.872;9.084;2023-12-22T03:04:00;2.70;;;1.17;;
77513;SDS011;66626;48.872;9.084;2023-12-22T03:06:25;3.00;;;0.65;;
77513;SDS011;66626;48.872;9.084;2023-12-22T03:08:50;5.82;;;1.10;;
77513;SDS011;66626;48.872;9.084;2023-12-22T03:11:16;3.95;;;0.88;;
77513;SDS011;66626;48.872;9.084;2023-12-22T03:13:42;5.95;;;1.23;;
77513;SDS011;66626;48.872;9.084;2023-12-22T03:16:08;3.08;;;1.05;;
77513;SDS011;66626;48.872;9.084;2023-12-22T03:18:33;3.15;;;0.50;;
77513;SDS011;66626;48.872;9.084;2023-12-22T03:21:02;2.38;;;0.60;;
77513;SDS011;66626;48.872;9.084;2023-12-22T03:23:28;3.70;;;0.90;;
77513;SDS011;66626;48.872;9.084;2023-12-22T03:25:53;5.68;;;1.27;;
77513;SDS011;66626;48.872;9.084;2023-12-22T03:28:19;5.28;;;0.77;;
77513;SDS011;66626;48.872;9.084;2023-12-22T03:30:44;1.88;;;0.70;;
77513;SDS011;66626;48.872;9.084;2023-12-22T03:33:09;3.00;;;0.98;;
77513;SDS011;66626;48.872;9.084;2023-12-22T03:35:36;4.03;;;1.23;;
77513;SDS011;66626;48.872;9.084;2023-12-22T03:38:02;1.90;;;0.80;;
77513;SDS011;66626;48.872;9.084;2023-12-22T03:40:28;3.33;;;1.10;;
77513;SDS011;66626;48.872;9.084;2023-12-22T03:42:54;2.58;;;0.70;;
77513;SDS011;66626;48.872;9.084;2023-12-22T03:45:20;4.38;;;0.90;;
77513;SDS011;66626;48.872;9.084;2023-12-22T03:47:45;5.47;;;1.10;;
77513;SDS011;66626;48.872;9.084;2023-12-22T03:50:10;3.65;;;1.02;;
77513;SDS011;66626;48.872;9.084;2023-12-22T03:52:36;2.03;;;0.63;;
77513;SDS011;66626;48.872;9.084;2023-12-22T03:55:01;3.95;;;1.13;;
77513;SDS011;66626;48.872;9.084;2023-12-22T03:57:27;1.27;;;0.43;;
77513;SDS011;66626;48.872;9.084;2023-12-22T03:59:52;2.88;;;1.02;;
77513;SDS011;66626;48.872;9.084;2023-12-22T04:02:17;3.70;;;1.05;;
77513;SDS011;66626;48.872;9.084;2023-12-22T04:04:43;2.35;;;0.70;;
77513;SDS011;66626;48.872;9.084;2023-12-22T04:07:08;4.13;;;1.27;;
77513;SDS011;66626;48.872;9.084;2023-12-22T04:09:33;6.10;;;1.42;;
77513;SDS011;66626;48.872;9.084;2023-12-22T04:11:59;3.75;;;1.15;;
77513;SDS011;66626;48.872;9.084;2023-12-22T04:14:24;7.13;;;2.05;;
77513;SDS011;66626;48.872;9.084;2023-12-22T04:16:50;2.47;;;0.82;;
77513;SDS011;66626;48.872;9.084;2023-12-22T04:19:17;5.07;;;1.55;;
77513;SDS011;66626;48.872;9.084;2023-12-22T04:21:43;5.82;;;1.05;;
77513;SDS011;66626;48.872;9.084;2023-12-22T04:24:08;6.90;;;1.40;;
77513;SDS011;66626;48.872;9.084;2023-12-22T04:26:34;4.60;;;1.80;;
77513;SDS011;66626;48.872;9.084;2023-12-22T04:28:59;2.58;;;0.47;;
77513;SDS011;66626;48.872;9.084;2023-12-22T04:31:24;2.75;;;0.80;;
77513;SDS011;66626;48.872;9.084;2023-12-22T04:33:49;4.82;;;1.00;;
77513;SDS011;66626;48.872;9.084;2023-12-22T04:36:15;10.48;;;1.20;;
77513;SDS011;66626;48.872;9.084;2023-12-22T04:38:40;4.22;;;2.17;;
77513;SDS011;66626;48.872;9.084;2023-12-22T04:41:06;4.43;;;1.13;;
77513;SDS011;66626;48.872;9.084;2023-12-22T04:43:31;3.50;;;1.13;;
77513;SDS011;66626;48.872;9.084;2023-12-22T04:45:56;1.10;;;0.50;;
77513;SDS011;66626;48.872;9.084;2023-12-22T04:48:22;2.70;;;0.85;;
77513;SDS011;66626;48.872;9.084;2023-12-22T04:50:47;2.40;;;0.90;;
77513;SDS011;66626;48.872;9.084;2023-12-22T04:53:12;6.85;;;1.33;;
77513;SDS011;66626;48.872;9.084;2023-12-22T04:55:38;4.85;;;0.88;;
77513;SDS011;66626;48.872;9.084;2023-12-22T04:58:03;6.88;;;1.42;;
77513;SDS011;66626;48.872;9.084;2023-12-22T05:00:28;3.70;;;0.98;;
77513;SDS011;66626;48.872;9.084;2023-12-22T05:02:54;3.30;;;0.60;;
77513;SDS011;66626;48.872;9.084;2023-12-22T05:05:19;6.47;;;1.23;;
77513;SDS011;66626;48.872;9.084;2023-12-22T05:07:44;7.00;;;1.30;;
77513;SDS011;66626;48.872;9.084;2023-12-22T05:10:09;3.38;;;1.38;;
77513;SDS011;66626;48.872;9.084;2023-12-22T05:12:35;4.20;;;0.95;;
77513;SDS011;66626;48.872;9.084;2023-12-22T05:15:00;7.70;;;1.30;;
77513;SDS011;66626;48.872;9.084;2023-12-22T05:17:25;3.40;;;1.17;;
77513;SDS011;66626;48.872;9.084;2023-12-22T05:19:51;5.70;;;0.80;;
77513;SDS011;66626;48.872;9.084;2023-12-22T05:22:16;5.80;;;1.48;;
77513;SDS011;66626;48.872;9.084;2023-12-22T05:24:41;3.55;;;0.93;;
77513;SDS011;66626;48.872;9.084;2023-12-22T05:27:07;8.70;;;2.10;;
77513;SDS011;66626;48.872;9.084;2023-12-22T05:29:33;7.70;;;1.17;;
77513;SDS011;66626;48.872;9.084;2023-12-22T05:31:58;5.50;;;1.73;;
77513;SDS011;66626;48.872;9.084;2023-12-22T05:34:24;6.60;;;1.85;;
77513;SDS011;66626;48.872;9.084;2023-12-22T05:36:50;6.60;;;1.67;;
77513;SDS011;66626;48.872;9.084;2023-12-22T05:39:15;4.63;;;1.50;;
77513;SDS011;66626;48.872;9.084;2023-12-22T05:41:40;10.57;;;2.33;;
77513;SDS011;66626;48.872;9.084;2023-12-22T05:44:05;8.70;;;2.78;;
77513;SDS011;66626;48.872;9.084;2023-12-22T05:46:35;4.13;;;1.15;;
77513;SDS011;66626;48.872;9.084;2023-12-22T05:49:01;5.10;;;1.15;;
77513;SDS011;66626;48.872;9.084;2023-12-22T05:51:26;5.82;;;1.33;;
77513;SDS011;66626;48.872;9.084;2023-12-22T05:53:52;3.70;;;1.20;;
77513;SDS011;66626;48.872;9.084;2023-12-22T05:56:21;7.65;;;1.98;;
77513;SDS011;66626;48.872;9.084;2023-12-22T05:58:47;6.63;;;1.88;;
77513;SDS011;66626;48.872;9.084;2023-12-22T06:01:14;2.53;;;1.30;;
77513;SDS011;66626;48.872;9.084;2023-12-22T06:03:44;5.18;;;1.63;;
77513;SDS011;66626;48.872;9.084;2023-12-22T06:06:09;5.68;;;2.03;;
77513;SDS011;66626;48.872;9.084;2023-12-22T06:08:38;5.28;;;1.15;;
77513;SDS011;66626;48.872;9.084;2023-12-22T06:11:03;3.85;;;1.00;;
77513;SDS011;66626;48.872;9.084;2023-12-22T06:13:29;5.63;;;1.35;;
77513;SDS011;66626;48.872;9.084;2023-12-22T06:15:55;3.08;;;0.88;;
77513;SDS011;66626;48.872;9.084;2023-12-22T06:18:20;6.07;;;1.10;;
77513;SDS011;66626;48.872;9.084;2023-12-22T06:20:45;2.65;;;0.80;;
77513;SDS011;66626;48.872;9.084;2023-12-22T06:23:11;4.55;;;1.25;;
77513;SDS011;66626;48.872;9.084;2023-12-22T06:25:36;5.90;;;1.55;;
77513;SDS011;66626;48.872;9.084;2023-12-22T06:28:01;5.85;;;1.33;;
77513;SDS011;66626;48.872;9.084;2023-12-22T06:30:27;3.38;;;1.13;;
77513;SDS011;66626;48.872;9.084;2023-12-22T06:32:52;11.07;;;1.58;;
77513;SDS011;66626;48.872;9.084;2023-12-22T06:35:17;5.82;;;2.00;;
77513;SDS011;66626;48.872;9.084;2023-12-22T06:37:48;5.22;;;1.38;;
77513;SDS011;66626;48.872;9.084;2023-12-22T06:40:13;4.68;;;1.52;;
77513;SDS011;66626;48.872;9.084;2023-12-22T06:42:39;5.90;;;1.20;;
77513;SDS011;66626;48.872;9.084;2023-12-22T06:45:04;5.22;;;1.27;;
77513;SDS011;66626;48.872;9.084;2023-12-22T06:47:30;6.65;;;1.23;;
77513;SDS011;66626;48.872;9.084;2023-12-22T06:49:55;6.03;;;1.35;;
77513;SDS011;66626;48.872;9.084;2023-12-22T06:52:20;8.13;;;2.75;;
77513;SDS011;66626;48.872;9.084;2023-12-22T06:54:46;3.83;;;0.88;;
77513;SDS011;66626;48.872;9.084;2023-12-22T06:57:11;4.82;;;1.40;;
77513;SDS011;66626;48.872;9.084;2023-12-22T06:59:37;2.80;;;1.33;;
77513;SDS011;66626;48.872;9.084;2023-12-22T07:02:03;8.10;;;1.50;;
77513;SDS011;66626;48.872;9.084;2023-12-22T07:04:29;6.47;;;1.20;;
77513;SDS011;66626;48.872;9.084;2023-12-22T07:06:54;6.18;;;1.30;;
77513;SDS011;66626;48.872;9.084;2023-12-22T07:11:47;7.30;;;1.33;;
77513;SDS011;66626;48.872;9.084;2023-12-22T07:14:13;3.70;;;1.15;;
77513;SDS011;66626;48.872;9.084;2023-12-22T07:16:40;3.35;;;1.13;;
77513;SDS011;66626;48.872;9.084;2023-12-22T07:19:05;4.22;;;1.42;;
77513;SDS011;66626;48.872;9.084;2023-12-22T07:21:31;6.63;;;1.52;;
77513;SDS011;66626;48.872;9.084;2023-12-22T07:23:56;3.70;;;1.17;;
77513;SDS011;66626;48.872;9.084;2023-12-22T07:26:23;6.43;;;1.25;;
77513;SDS011;66626;48.872;9.084;2023-12-22T07:28:49;4.63;;;1.30;;
77513;SDS011;66626;48.872;9.084;2023-12-22T07:31:14;6.18;;;1.08;;
77513;SDS011;66626;48.872;9.084;2023-12-22T07:33:40;6.15;;;1.17;;
77513;SDS011;66626;48.872;9.084;2023-12-22T07:36:05;5.20;;;1.35;;
77513;SDS011;66626;48.872;9.084;2023-12-22T07:38:31;7.18;;;1.70;;
77513;SDS011;66626;48.872;9.084;2023-12-22T07:40:56;5.60;;;1.10;;
77513;SDS011;66626;48.872;9.084;2023-12-22T07:43:22;3.88;;;1.48;;
77513;SDS011;66626;48.872;9.084;2023-12-22T07:45:47;3.97;;;1.02;;
77513;SDS011;66626;48.872;9.084;2023-12-22T07:48:14;11.98;;;1.70;;
77513;SDS011;66626;48.872;9.084;2023-12-22T07:50:39;5.50;;;1.10;;
77513;SDS011;66626;48.872;9.084;2023-12-22T07:53:06;4.30;;;0.82;;
77513;SDS011;66626;48.872;9.084;2023-12-22T07:55:33;7.55;;;1.42;;
77513;SDS011;66626;48.872;9.084;2023-12-22T07:57:58;6.68;;;1.35;;
77513;SDS011;66626;48.872;9.084;2023-12-22T08:00:23;5.75;;;1.27;;
77513;SDS011;66626;48.872;9.084;2023-12-22T08:02:49;5.90;;;1.52;;
77513;SDS011;66626;48.872;9.084;2023-12-22T08:05:14;9.05;;;1.80;;
77513;SDS011;66626;48.872;9.084;2023-12-22T08:07:40;3.65;;;1.02;;
77513;SDS011;66626;48.872;9.084;2023-12-22T08:10:05;8.77;;;1.60;;
77513;SDS011;66626;48.872;9.084;2023-12-22T08:12:31;3.03;;;0.90;;
77513;SDS011;66626;48.872;9.084;2023-12-22T08:14:57;3.65;;;1.13;;
77513;SDS011;66626;48.872;9.084;2023-12-22T08:17:23;8.63;;;1.70;;
77513;SDS011;66626;48.872;9.084;2023-12-22T08:19:48;4.25;;;1.00;;
77513;SDS011;66626;48.872;9.084;2023-12-22T08:22:14;8.25;;;1.40;;
77513;SDS011;66626;48.872;9.084;2023-12-22T08:24:39;7.63;;;1.42;;
77513;SDS011;66626;48.872;9.084;2023-12-22T08:27:05;8.10;;;1.40;;
77513;SDS011;66626;48.872;9.084;2023-12-22T08:29:33;8.13;;;1.77;;
77513;SDS011;66626;48.872;9.084;2023-12-22T08:31:59;5.18;;;1.40;;
77513;SDS011;66626;48.872;9.084;2023-12-22T08:34:25;5.05;;;1.30;;
77513;SDS011;66626;48.872;9.084;2023-12-22T08:36:51;12.45;;;2.80;;
77513;SDS011;66626;48.872;9.084;2023-12-22T08:39:16;7.65;;;1.60;;
77513;SDS011;66626;48.872;9.084;2023-12-22T08:41:41;10.65;;;2.38;;
77513;SDS011;66626;48.872;9.084;2023-12-22T08:44:07;8.77;;;2.33;;
77513;SDS011;66626;48.872;9.084;2023-12-22T08:46:33;8.25;;;2.35;;
77513;SDS011;66626;48.872;9.084;2023-12-22T08:48:58;8.98;;;2.38;;
77513;SDS011;66626;48.872;9.084;2023-12-22T08:51:24;10.63;;;1.85;;
77513;SDS011;66626;48.872;9.084;2023-12-22T08:53:53;9.88;;;1.85;;
77513;SDS011;66626;48.872;9.084;2023-12-22T08:56:22;8.57;;;2.17;;
77513;SDS011;66626;48.872;9.084;2023-12-22T08:58:47;8.52;;;1.67;;
77513;SDS011;66626;48.872;9.084;2023-12-22T09:01:15;6.07;;;1.85;;
77513;SDS011;66626;48.872;9.084;2023-12-22T09:03:41;6.47;;;1.65;;
77513;SDS011;66626;48.872;9.084;2023-12-22T09:06:10;7.40;;;1.70;;
77513;SDS011;66626;48.872;9.084;2023-12-22T09:08:36;17.77;;;3.95;;
77513;SDS011;66626;48.872;9.084;2023-12-22T09:11:02;11.10;;;2.08;;
77513;SDS011;66626;48.872;9.084;2023-12-22T09:13:27;5.82;;;1.77;;
77513;SDS011;66626;48.872;9.084;2023-12-22T09:15:56;10.48;;;2.45;;
77513;SDS011;66626;48.872;9.084;2023-12-22T09:18:21;5.60;;;2.20;;
77513;SDS011;66626;48.872;9.084;2023-12-22T09:20:48;5.35;;;1.48;;
77513;SDS011;66626;48.872;9.084;2023-12-22T09:23:13;7.90;;;2.30;;
77513;SDS011;66626;48.872;9.084;2023-12-22T09:25:39;8.65;;;3.03;;
77513;SDS011;66626;48.872;9.084;2023-12-22T09:28:04;7.78;;;2.35;;
77513;SDS011;66626;48.872;9.084;2023-12-22T09:30:29;12.38;;;3.13;;
77513;SDS011;66626;48.872;9.084;2023-12-22T09:32:55;18.40;;;3.03;;
77513;SDS011;66626;48.872;9.084;2023-12-22T09:35:20;13.32;;;2.05;;
77513;SDS011;66626;48.872;9.084;2023-12-22T09:37:46;6.20;;;1.40;;
77513;SDS011;66626;48.872;9.084;2023-12-22T09:40:12;7.75;;;2.03;;
77513;SDS011;66626;48.872;9.084;2023-12-22T09:42:39;18.05;;;2.42;;
77513;SDS011;66626;48.872;9.084;2023-12-22T09:45:06;7.32;;;1.92;;
77513;SDS011;66626;48.872;9.084;2023-12-22T09:47:33;8.48;;;1.95;;
77513;SDS011;66626;48.872;9.084;2023-12-22T09:50:00;7.18;;;2.03;;
77513;SDS011;66626;48.872;9.084;2023-12-22T09:52:26;12.15;;;2.65;;
77513;SDS011;66626;48.872;9.084;2023-12-22T09:54:53;4.50;;;1.23;;
77513;SDS011;66626;48.872;9.084;2023-12-22T09:57:19;10.60;;;1.90;;
77513;SDS011;66626;48.872;9.084;2023-12-22T09:59:45;12.90;;;2.03;;
77513;SDS011;66626;48.872;9.084;2023-12-22T10:02:13;3.72;;;1.35;;
77513;SDS011;66626;48.872;9.084;2023-12-22T10:04:38;5.03;;;2.30;;
77513;SDS011;66626;48.872;9.084;2023-12-22T10:07:03;6.70;;;2.08;;
77513;SDS011;66626;48.872;9.084;2023-12-22T10:09:30;5.72;;;1.85;;
77513;SDS011;66626;48.872;9.084;2023-12-22T10:11:56;13.15;;;2.42;;
77513;SDS011;66626;48.872;9.084;2023-12-22T10:14:21;8.00;;;1.83;;
77513;SDS011;66626;48.872;9.084;2023-12-22T10:16:51;8.63;;;2.67;;
77513;SDS011;66626;48.872;9.084;2023-12-22T10:19:17;7.70;;;3.08;;
77513;SDS011;66626;48.872;9.084;2023-12-22T10:21:42;7.55;;;1.65;;
77513;SDS011;66626;48.872;9.084;2023-12-22T10:24:07;13.20;;;2.17;;
77513;SDS011;66626;48.872;9.084;2023-12-22T10:26:54;10.05;;;2.88;;
77513;SDS011;66626;48.872;9.084;2023-12-22T10:29:20;8.80;;;1.98;;
77513;SDS011;66626;48.872;9.084;2023-12-22T10:31:45;8.60;;;2.30;;
77513;SDS011;66626;48.872;9.084;2023-12-22T10:34:10;7.35;;;1.73;;
77513;SDS011;66626;48.872;9.084;2023-12-22T10:36:36;7.22;;;1.77;;
77513;SDS011;66626;48.872;9.084;2023-12-22T10:39:01;3.63;;;1.33;;
77513;SDS011;66626;48.872;9.084;2023-12-22T10:41:26;9.98;;;2.40;;
77513;SDS011;66626;48.872;9.084;2023-12-22T10:43:52;10.32;;;1.80;;
77513;SDS011;66626;48.872;9.084;2023-12-22T10:46:17;7.78;;;2.05;;
77513;SDS011;66626;48.872;9.084;2023-12-22T10:48:42;7.78;;;2.17;;
77513;SDS011;66626;48.872;9.084;2023-12-22T10:51:11;6.75;;;1.25;;
77513;SDS011;66626;48.872;9.084;2023-12-22T10:53:40;7.38;;;1.50;;
77513;SDS011;66626;48.872;9.084;2023-12-22T10:56:05;6.43;;;1.52;;
77513;SDS011;66626;48.872;9.084;2023-12-22T10:58:31;5.70;;;1.20;;
77513;SDS011;66626;48.872;9.084;2023-12-22T11:00:57;5.43;;;1.10;;
77513;SDS011;66626;48.872;9.084;2023-12-22T11:03:23;5.47;;;1.40;;
77513;SDS011;66626;48.872;9.084;2023-12-22T11:05:50;2.75;;;0.68;;
77513;SDS011;66626;48.872;9.084;2023-12-22T11:08:16;8.10;;;2.28;;
77513;SDS011;66626;48.872;9.084;2023-12-22T11:10:42;6.82;;;1.42;;
77513;SDS011;66626;48.872;9.084;2023-12-22T11:13:09;11.95;;;1.20;;
77513;SDS011;66626;48.872;9.084;2023-12-22T11:15:35;4.10;;;0.82;;
77513;SDS011;66626;48.872;9.084;2023-12-22T11:18:01;2.15;;;0.80;;
77513;SDS011;66626;48.872;9.084;2023-12-22T11:20:26;3.75;;;0.88;;
77513;SDS011;66626;48.872;9.084;2023-12-22T11:22:52;4.60;;;0.77;;
77513;SDS011;66626;48.872;9.084;2023-12-22T11:25:19;2.70;;;0.95;;
77513;SDS011;66626;48.872;9.084;2023-12-22T11:27:44;0.98;;;0.50;;
77513;SDS011;66626;48.872;9.084;2023-12-22T11:30:12;3.65;;;0.85;;
77513;SDS011;66626;48.872;9.084;2023-12-22T11:32:39;5.15;;;0.75;;
77513;SDS011;66626;48.872;9.084;2023-12-22T11:35:04;6.15;;;0.95;;
77513;SDS011;66626;48.872;9.084;2023-12-22T11:37:30;1.95;;;0.68;;
77513;SDS011;66626;48.872;9.084;2023-12-22T11:39:57;5.18;;;1.58;;
77513;SDS011;66626;48.872;9.084;2023-12-22T11:42:27;3.83;;;0.90;;
77513;SDS011;66626;48.872;9.084;2023-12-22T11:44:54;4.78;;;0.90;;
77513;SDS011;66626;48.872;9.084;2023-12-22T11:47:22;6.47;;;1.17;;
77513;SDS011;66626;48.872;9.084;2023-12-22T11:49:48;2.90;;;0.90;;
77513;SDS011;66626;48.872;9.084;2023-12-22T11:52:18;1.42;;;0.47;;
77513;SDS011;66626;48.872;9.084;2023-12-22T11:54:50;2.80;;;0.77;;
77513;SDS011;66626;48.872;9.084;2023-12-22T11:57:33;3.00;;;1.33;;
77513;SDS011;66626;48.872;9.084;2023-12-22T12:05:01;3.00;;;0.80;;
77513;SDS011;66626;48.872;9.084;2023-12-22T12:10:06;1.98;;;0.73;;
77513;SDS011;66626;48.872;9.084;2023-12-22T12:12:32;2.05;;;0.70;;
77513;SDS011;66626;48.872;9.084;2023-12-22T12:15:06;2.30;;;0.65;;
77513;SDS011;66626;48.872;9.084;2023-12-22T12:17:42;2.28;;;0.75;;
77513;SDS011;66626;48.872;9.084;2023-12-22T12:20:08;2.42;;;0.75;;
77513;SDS011;66626;48.872;9.084;2023-12-22T12:22:34;2.00;;;0.75;;
77513;SDS011;66626;48.872;9.084;2023-12-22T12:25:02;2.67;;;1.58;;
77513;SDS011;66626;48.872;9.084;2023-12-22T12:27:29;2.80;;;0.57;;
77513;SDS011;66626;48.872;9.084;2023-12-22T12:29:54;1.23;;;0.30;;
77513;SDS011;66626;48.872;9.084;2023-12-22T12:32:22;2.85;;;0.45;;
77513;SDS011;66626;48.872;9.084;2023-12-22T12:34:48;1.33;;;0.63;;
77513;SDS011;66626;48.872;9.084;2023-12-22T12:37:14;2.85;;;0.65;;
77513;SDS011;66626;48.872;9.084;2023-12-22T12:39:41;5.70;;;0.88;;
77513;SDS011;66626;48.872;9.084;2023-12-22T12:42:08;1.95;;;0.68;;
77513;SDS011;66626;48.872;9.084;2023-12-22T12:44:35;1.00;;;0.35;;
77513;SDS011;66626;48.872;9.084;2023-12-22T12:47:13;1.85;;;0.32;;
77513;SDS011;66626;48.872;9.084;2023-12-22T12:49:39;1.60;;;0.43;;
77513;SDS011;66626;48.872;9.084;2023-12-22T12:52:05;1.48;;;0.73;;
77513;SDS011;66626;48.872;9.084;2023-12-22T12:54:31;1.58;;;0.30;;
77513;SDS011;66626;48.872;9.084;2023-12-22T12:56:56;0.28;;;0.20;;
77513;SDS011;66626;48.872;9.084;2023-12-22T12:59:22;2.22;;;0.50;;
77513;SDS011;66626;48.872;9.084;2023-12-22T13:01:47;0.63;;;0.30;;
77513;SDS011;66626;48.872;9.084;2023-12-22T13:04:13;0.70;;;0.28;;
77513;SDS011;66626;48.872;9.084;2023-12-22T13:06:45;0.10;;;0.10;;
77513;SDS011;66626;48.872;9.084;2023-12-22T13:09:11;1.83;;;0.40;;
77513;SDS011;66626;48.872;9.084;2023-12-22T13:11:38;1.15;;;0.32;;
77513;SDS011;66626;48.872;9.084;2023-12-22T13:14:04;0.68;;;0.20;;
77513;SDS011;66626;48.872;9.084;2023-12-22T13:16:31;1.77;;;0.47;;
77513;SDS011;66626;48.872;9.084;2023-12-22T13:18:57;1.55;;;0.85;;
77513;SDS011;66626;48.872;9.084;2023-12-22T13:21:23;0.85;;;0.30;;
77513;SDS011;66626;48.872;9.084;2023-12-22T13:24:07;0.88;;;0.25;;
77513;SDS011;66626;48.872;9.084;2023-12-22T13:26:35;1.38;;;0.65;;
77513;SDS011;66626;48.872;9.084;2023-12-22T13:29:01;1.60;;;0.40;;
77513;SDS011;66626;48.872;9.084;2023-12-22T13:31:26;2.00;;;0.80;;
77513;SDS011;66626;48.872;9.084;2023-12-22T13:33:52;0.82;;;0.22;;
77513;SDS011;66626;48.872;9.084;2023-12-22T13:36:19;1.08;;;0.52;;
77513;SDS011;66626;48.872;9.084;2023-12-22T13:38:45;0.60;;;0.47;;
77513;SDS011;66626;48.872;9.084;2023-12-22T13:41:14;0.95;;;0.30;;
77513;SDS011;66626;48.872;9.084;2023-12-22T13:43:40;0.65;;;0.40;;
77513;SDS011;66626;48.872;9.084;2023-12-22T13:46:05;0.93;;;0.40;;
77513;SDS011;66626;48.872;9.084;2023-12-22T13:48:33;1.80;;;0.70;;
77513;SDS011;66626;48.872;9.084;2023-12-22T13:50:59;0.85;;;0.50;;
77513;SDS011;66626;48.872;9.084;2023-12-22T13:53:25;2.15;;;0.60;;
77513;SDS011;66626;48.872;9.084;2023-12-22T13:56:09;1.45;;;0.50;;
77513;SDS011;66626;48.872;9.084;2023-12-22T13:58:34;0.77;;;0.30;;
77513;SDS011;66626;48.872;9.084;2023-12-22T14:01:12;1.17;;;0.50;;
77513;SDS011;66626;48.872;9.084;2023-12-22T14:03:40;1.38;;;0.60;;
77513;SDS011;66626;48.872;9.084;2023-12-22T14:06:05;1.10;;;0.40;;
77513;SDS011;66626;48.872;9.084;2023-12-22T14:08:33;1.50;;;0.70;;
77513;SDS011;66626;48.872;9.084;2023-12-22T14:10:59;2.33;;;0.57;;
77513;SDS011;66626;48.872;9.084;2023-12-22T14:13:24;1.55;;;0.80;;
77513;SDS011;66626;48.872;9.084;2023-12-22T14:15:49;0.75;;;0.30;;
77513;SDS011;66626;48.872;9.084;2023-12-22T14:18:15;1.65;;;0.60;;
77513;SDS011;66626;48.872;9.084;2023-12-22T14:20:40;1.40;;;0.63;;
77513;SDS011;66626;48.872;9.084;2023-12-22T14:23:05;1.63;;;0.70;;
77513;SDS011;66626;48.872;9.084;2023-12-22T14:25:31;0.68;;;0.30;;
77513;SDS011;66626;48.872;9.084;2023-12-22T14:27:57;0.85;;;0.22;;
77513;SDS011;66626;48.872;9.084;2023-12-22T14:30:23;0.88;;;0.30;;
77513;SDS011;66626;48.872;9.084;2023-12-22T14:32:51;0.75;;;0.30;;
77513;SDS011;66626;48.872;9.084;2023-12-22T14:35:16;0.63;;;0.30;;
77513;SDS011;66626;48.872;9.084;2023-12-22T14:37:41;1.00;;;0.30;;
77513;SDS011;66626;48.872;9.084;2023-12-22T14:40:08;3.63;;;0.52;;
77513;SDS011;66626;48.872;9.084;2023-12-22T14:42:34;1.38;;;0.55;;
77513;SDS011;66626;48.872;9.084;2023-12-22T14:44:59;1.15;;;0.47;;
77513;SDS011;66626;48.872;9.084;2023-12-22T14:47:26;1.20;;;0.50;;
77513;SDS011;66626;48.872;9.084;2023-12-22T14:49:52;0.77;;;0.32;;
77513;SDS011;66626;48.872;9.084;2023-12-22T14:52:17;2.30;;;0.80;;
77513;SDS011;66626;48.872;9.084;2023-12-22T14:54:42;0.98;;;0.40;;